YPPH Airport Information

Runway Information
Runway 03 Length 11299 ft width 148 ft
Elevation 67 ft Threshold 0 ft Heading 14
Runway 21 Length 11299 ft Width 148 ft
Elevation 43 ft Threshold 0 ft Heading 194
Runway 06 Length 7096 ft width 148 ft
Elevation 58 ft Threshold 0 ft Heading 59
Runway 24 Length 7096 ft Width 148 ft
Elevation 58 ft Threshold 0 ft Heading 239
Airport Frequencies
Type APP Name APP Frequency 123.6 MHZ
Type ATIS Name ATIS Frequency 123.8 MHZ
Type CLD Name CLNC DEL Frequency 118.55 MHZ
Type DEP Name DEP Frequency 118.7 MHZ
Type FSS Name PERTH RADA Frequency 135.25 MHZ
Type GND Name GND Frequency 121.7 MHZ
Type OPS Name RAAF AIR O Frequency 897.4 MHZ
Type TWR Name TWR Frequency 120.5 MHZ
Airport Navaids
Type NDB Name Caversham Frequency 329 KHZ
Type VOR-DME Name Perth Frequency 113700 KHZ
Type NDB Name Perth Frequency 272 KHZ
Type NDB Name Parkerville Frequency 352 KHZ
Airport Weather Information & NOTAM
ADDS - METARS form results

(1651 UTC 19 August 2019)
Data provider http://aviationweather.gov/metar/data/
 
METAR text: YPPH 191630Z 04004KT CAVOK 06/04 Q1034 NOSIG
Conditions at: YPPH (PERTH INTL/BELMO, AU) observed 1630 UTC 19 August 2019
Temperature: 6.0°C (43°F)
Dewpoint: 4.0°C (39°F) [RH = 87%]
Pressure (altimeter): 30.53 inches Hg (1034.0 mb)
Winds: from the NE (40 degrees) at 5 MPH (4 knots; 2.1 m/s)
Visibility: 6 or more miles (10+ km)
Ceiling: ceiling and visibility are OK
Clouds: unknown
Weather: no significant weather observed at this time

METAR text: YPPH 191600Z 09004KT CAVOK 06/05 Q1034 NOSIG
Conditions at: YPPH (PERTH INTL/BELMO, AU) observed 1600 UTC 19 August 2019
Temperature: 6.0°C (43°F)
Dewpoint: 5.0°C (41°F) [RH = 93%]
Pressure (altimeter): 30.53 inches Hg (1034.0 mb)
Winds: from the E (90 degrees) at 5 MPH (4 knots; 2.1 m/s)
Visibility: 6 or more miles (10+ km)
Ceiling: ceiling and visibility are OK
Clouds: unknown
Weather: no significant weather observed at this time

Forecast for: YPPH (PERTH INTL/BELMO, AU)
Text: TAF YPPH 191058Z 1912/2018 13005KT CAVOK
Forecast period: 1200 UTC 19 August 2019 to 0000 UTC 20 August 2019
Forecast type: FROM: standard forecast or significant change
Winds: from the SE (130 degrees) at 6 MPH (5 knots; 2.6 m/s)
Visibility: 6 or more miles 10+ km)
Ceiling: unknown
Clouds: missing
Weather: NSW  (no significant weather)
Text: FM200000 06010KT CAVOK
Forecast period: 0000 to 1800 UTC 20 August 2019
Forecast type: FROM: standard forecast or significant change
Winds: from the ENE (60 degrees) at 12 MPH (10 knots; 5.1 m/s)
Visibility: 6 or more miles 10+ km)
Ceiling: unknown
Clouds: missing
Weather: NSW  (no significant weather)